createdAt,value
2023-03-06T00:04:24.346Z,97851.78
2023-03-06T00:09:28.971Z,97845.25
2023-03-06T00:14:32.390Z,97855.84
2023-03-06T00:19:35.789Z,97858.50
2023-03-06T00:24:40.401Z,97847.38
2023-03-06T00:29:43.556Z,97849.28
2023-03-06T00:34:50.089Z,97844.97
2023-03-06T00:39:55.087Z,97841.63
2023-03-06T00:44:58.471Z,97851.28
2023-03-06T00:50:01.867Z,97849.63
2023-03-06T00:55:09.809Z,97813.66
2023-03-06T01:00:14.731Z,97841.06
2023-03-06T01:05:18.441Z,97852.13
2023-03-06T01:10:23.417Z,97857.22
2023-03-06T01:15:26.982Z,97855.41
2023-03-06T01:20:30.995Z,97850.91
2023-03-06T01:25:35.580Z,97855.03
2023-03-06T01:30:38.774Z,97851.47
2023-03-06T01:35:42.172Z,97856.59
2023-03-06T01:40:47.258Z,97857.44
2023-03-06T01:46:23.941Z,97854.78
2023-03-06T01:51:31.719Z,97859.06
2023-03-06T01:56:37.026Z,97864.25
2023-03-06T02:01:41.862Z,97848.72
2023-03-06T02:06:45.693Z,97865.94
2023-03-06T02:11:50.540Z,97860.66
2023-03-06T02:16:54.114Z,97821.31
2023-03-06T02:21:57.710Z,97865.81
2023-03-06T02:27:05.402Z,97854.63
2023-03-06T02:32:08.899Z,97862.31
2023-03-06T02:37:12.987Z,97856.34
2023-03-06T02:42:21.081Z,97824.53
2023-03-06T02:47:24.700Z,97853.56
2023-03-06T02:52:27.985Z,97858.69
2023-03-06T02:57:32.657Z,97855.19
2023-03-06T03:02:36.011Z,97856.91
2023-03-06T03:07:39.522Z,97862.06
2023-03-06T03:12:44.603Z,97862.00
2023-03-06T03:17:47.867Z,97861.97
2023-03-06T03:22:53.319Z,97855.81
2023-03-06T03:27:57.996Z,97864.41
2023-03-06T03:33:01.274Z,97863.41
2023-03-06T03:38:04.889Z,97861.56
2023-03-06T03:43:09.693Z,97859.78
2023-03-06T03:48:13.148Z,97863.19
2023-03-06T03:53:16.492Z,97859.69
2023-03-06T03:58:21.148Z,97862.28
2023-03-06T04:03:24.514Z,97861.41
2023-03-06T04:08:28.590Z,97861.41
2023-03-06T04:13:33.297Z,97853.00
2023-03-06T04:18:36.719Z,97861.50
2023-03-06T04:23:40.069Z,97860.69
2023-03-06T04:28:44.619Z,97860.69
2023-03-06T04:33:47.828Z,97866.78
2023-03-06T04:38:51.081Z,97862.34
2023-03-06T04:43:56.170Z,97868.34
2023-03-06T04:48:59.518Z,97851.94
2023-03-06T04:54:02.787Z,97865.50
2023-03-06T04:59:07.622Z,97870.53
2023-03-06T05:04:10.864Z,97867.81
2023-03-06T05:09:14.366Z,97878.19
2023-03-06T05:14:19.002Z,97871.09
2023-03-06T05:19:22.311Z,97879.53
2023-03-06T05:24:25.720Z,97879.19
2023-03-06T05:29:30.336Z,97880.66
2023-03-06T05:34:33.627Z,97878.81
2023-03-06T05:39:37.007Z,97888.28
2023-03-06T05:44:42.279Z,97888.28
2023-03-06T05:49:45.601Z,97894.38
2023-03-06T05:54:51.908Z,97895.84
2023-03-06T05:59:56.544Z,97898.75
2023-03-06T06:04:59.912Z,97901.16
2023-03-06T06:10:03.987Z,97901.47
2023-03-06T06:15:10.053Z,97898.34
2023-03-06T06:20:14.395Z,97891.41
2023-03-06T06:25:18.197Z,97854.78
2023-03-06T06:30:23.548Z,97895.59
2023-03-06T06:35:26.828Z,97896.16
2023-03-06T06:40:30.573Z,97898.94
2023-03-06T06:45:35.486Z,97902.28
2023-03-06T06:50:40.107Z,97910.22
2023-03-06T06:55:43.447Z,97907.50
2023-03-06T07:00:48.266Z,97910.47
2023-03-06T07:05:57.760Z,97916.47
2023-03-06T07:11:05.768Z,97910.00
2023-03-06T07:16:11.057Z,97912.00
2023-03-06T07:21:14.414Z,97911.13
2023-03-06T07:26:17.668Z,97909.31
2023-03-06T07:31:24.738Z,97917.25
2023-03-06T07:36:28.162Z,97932.56
2023-03-06T07:41:31.439Z,97923.78
2023-03-06T07:46:36.059Z,97927.09
2023-03-06T07:51:39.394Z,97927.63
2023-03-06T07:56:42.658Z,97934.59
2023-03-06T08:01:47.302Z,97935.59
2023-03-06T08:06:50.809Z,97940.56
2023-03-06T08:11:54.111Z,97939.03
2023-03-06T08:16:59.038Z,97954.16
2023-03-06T08:22:02.193Z,97937.66
2023-03-06T08:27:05.481Z,97935.47
2023-03-06T08:32:13.203Z,97942.28
2023-03-06T08:37:16.463Z,97933.50
2023-03-06T08:42:20.215Z,97930.28
2023-03-06T08:47:24.966Z,97954.47
2023-03-06T08:52:28.498Z,97950.41
2023-03-06T08:57:32.023Z,97949.06
2023-03-06T09:02:36.922Z,97948.25
2023-03-06T09:07:40.213Z,97949.75
2023-03-06T09:12:50.593Z,97954.41
2023-03-06T09:17:56.973Z,97963.03
2023-03-06T09:23:00.616Z,97948.91
2023-03-06T09:28:11.322Z,97955.25
2023-03-06T09:33:16.789Z,97956.78
2023-03-06T09:38:20.778Z,97973.50
2023-03-06T09:43:35.494Z,97975.81
2023-03-06T09:48:50.464Z,97988.75
2023-03-06T09:54:06.920Z,97978.44
2023-03-06T09:59:17.579Z,97977.72
2023-03-06T10:04:33.914Z,97981.53
2023-03-06T10:09:43.504Z,97979.19
2023-03-06T10:14:51.555Z,97938.50
2023-03-06T10:19:56.621Z,97989.31
2023-03-06T10:25:06.157Z,97988.81
2023-03-06T10:30:33.840Z,97986.53
2023-03-06T10:35:48.515Z,97993.09
2023-03-06T10:41:08.177Z,97995.56
2023-03-06T10:46:13.458Z,97996.56
2023-03-06T10:51:21.221Z,97990.59
2023-03-06T10:56:32.462Z,97986.09
2023-03-06T11:01:36.202Z,97997.81
2023-03-06T11:06:41.029Z,98014.84
2023-03-06T11:11:44.553Z,98004.50
2023-03-06T11:16:53.285Z,98008.72
2023-03-06T11:22:03.868Z,98014.22
2023-03-06T11:27:22.336Z,98017.94
2023-03-06T11:32:28.979Z,98011.59
2023-03-06T11:37:46.402Z,98016.13
2023-03-06T11:42:54.448Z,98007.75
2023-03-06T11:48:05.121Z,98006.91
2023-03-06T11:53:13.927Z,97994.47
2023-03-06T11:58:51.624Z,97994.34
2023-03-06T12:04:27.250Z,97990.50
2023-03-06T12:09:45.317Z,98000.69
2023-03-06T12:15:17.822Z,98009.59
2023-03-06T12:20:41.369Z,98021.81
2023-03-06T12:25:51.845Z,98028.81
2023-03-06T12:31:18.921Z,98036.31
2023-03-06T12:36:40.004Z,97994.19
2023-03-06T12:42:22.692Z,98046.00
2023-03-06T12:47:29.305Z,98028.19
2023-03-06T12:52:35.076Z,98020.16
2023-03-06T12:57:39.649Z,98033.13
2023-03-06T13:02:56.162Z,98036.97
2023-03-06T13:08:25.386Z,98045.06
2023-03-06T13:13:42.719Z,98033.94
2023-03-06T13:18:53.264Z,98018.09
2023-03-06T13:24:05.850Z,98032.28
2023-03-06T13:29:41.878Z,98026.53
2023-03-06T13:34:48.679Z,98066.97
2023-03-06T13:40:26.935Z,98065.63
2023-03-06T13:45:35.450Z,98060.88
2023-03-06T13:50:42.865Z,98066.66
2023-03-06T13:55:59.892Z,98069.84
2023-03-06T14:01:20.326Z,98072.78
2023-03-06T14:06:51.500Z,98078.97
2023-03-06T14:11:59.334Z,98076.34
2023-03-06T14:17:05.368Z,98112.69
2023-03-06T14:22:18.386Z,98132.97
2023-03-06T14:27:22.461Z,98144.66
2023-03-06T14:32:25.978Z,98148.75
2023-03-06T14:37:32.230Z,98135.13
2023-03-06T14:42:35.530Z,98131.84
2023-03-06T14:47:39.272Z,98135.53
2023-03-06T14:52:44.534Z,98137.63
2023-03-06T14:57:50.262Z,98147.31
2023-03-06T15:02:56.419Z,98162.19
2023-03-06T15:08:04.672Z,98157.13
2023-03-06T15:13:12.625Z,98163.63
2023-03-06T15:18:34.035Z,98172.84
2023-03-06T15:23:40.580Z,98177.66
2023-03-06T15:28:44.069Z,98178.91
2023-03-06T15:34:09.300Z,98183.59
2023-03-06T15:39:32.046Z,98191.66
2023-03-06T15:44:35.838Z,98196.09
2023-03-06T15:49:39.340Z,98184.25
2023-03-06T15:54:44.346Z,98204.19
2023-03-06T15:59:48.157Z,98213.84
2023-03-06T16:04:52.273Z,98217.38
2023-03-06T16:09:57.267Z,98227.72
2023-03-06T16:15:03.004Z,98225.94
2023-03-06T16:20:09.166Z,98240.59
2023-03-06T16:25:15.267Z,98242.25
2023-03-06T16:30:21.497Z,98250.91
2023-03-06T16:35:25.859Z,98251.72
2023-03-06T16:40:37.634Z,98251.75
2023-03-06T16:45:42.757Z,98255.22
2023-03-06T16:50:46.325Z,98259.50
2023-03-06T16:55:51.113Z,98271.53
2023-03-06T17:00:54.700Z,98268.09
2023-03-06T17:05:58.015Z,98270.84
2023-03-06T17:11:06.410Z,98287.38
2023-03-06T17:16:12.775Z,98293.53
2023-03-06T17:21:16.711Z,98289.22
2023-03-06T17:26:21.554Z,98294.50
2023-03-06T17:31:27.153Z,98298.84
2023-03-06T17:36:31.251Z,98309.25
2023-03-06T17:41:35.985Z,98310.16
2023-03-06T17:46:39.499Z,98310.25
2023-03-06T17:51:42.697Z,98319.78
2023-03-06T17:56:47.620Z,98317.25
2023-03-06T18:01:51.050Z,98316.50
2023-03-06T18:06:54.517Z,98323.53
2023-03-06T18:11:59.156Z,98321.84
2023-03-06T18:17:02.465Z,98339.25
2023-03-06T18:22:05.651Z,98341.88
2023-03-06T18:27:10.516Z,98347.03
2023-03-06T18:32:13.746Z,98354.88
2023-03-06T18:37:17.282Z,98354.91
2023-03-06T18:42:22.066Z,98360.13
2023-03-06T18:47:25.388Z,98363.66
2023-03-06T18:52:28.577Z,98362.81
2023-03-06T18:57:33.638Z,98373.19
2023-03-06T19:02:36.961Z,98374.09
2023-03-06T19:07:40.830Z,98371.50
2023-03-06T19:12:45.622Z,98382.75
2023-03-06T19:17:51.516Z,98375.84
2023-03-06T19:22:55.242Z,98383.66
2023-03-06T19:27:59.938Z,98386.25
2023-03-06T19:33:03.287Z,98389.72
2023-03-06T19:38:06.465Z,98394.91
2023-03-06T19:43:11.170Z,98396.63
2023-03-06T19:48:14.860Z,98391.47
2023-03-06T19:53:18.096Z,98394.94
2023-03-06T19:58:22.754Z,98405.28
2023-03-06T20:03:25.995Z,98398.38
2023-03-06T20:08:29.283Z,98401.78
2023-03-06T20:13:34.114Z,98401.81
2023-03-06T20:18:37.523Z,98394.88
2023-03-06T20:23:40.997Z,98400.06
2023-03-06T20:28:45.653Z,98370.66
2023-03-06T20:33:51.240Z,98401.72
2023-03-06T20:38:54.597Z,98406.91
2023-03-06T20:44:01.187Z,98391.31
2023-03-06T20:49:05.448Z,98404.25
2023-03-06T20:54:11.172Z,98403.38
2023-03-06T20:59:16.353Z,98405.94
2023-03-06T21:04:19.486Z,98409.41
2023-03-06T21:09:22.936Z,98409.41
2023-03-06T21:14:27.885Z,98409.38
2023-03-06T21:19:31.265Z,98413.72
2023-03-06T21:24:34.530Z,98416.31
2023-03-06T21:29:39.213Z,98409.38
2023-03-06T21:34:42.600Z,98412.84
2023-03-06T21:39:45.902Z,98420.63
2023-03-06T21:44:50.889Z,98418.03
2023-03-06T21:49:54.186Z,98413.72
2023-03-06T21:54:57.503Z,98414.56
2023-03-06T22:00:02.365Z,98425.81
2023-03-06T22:05:07.194Z,98418.88
2023-03-06T22:10:14.391Z,98421.50
2023-03-06T22:15:21.914Z,98424.06
2023-03-06T22:20:25.256Z,98424.09
2023-03-06T22:25:28.405Z,98424.06
2023-03-06T22:30:33.100Z,98424.06
2023-03-06T22:35:36.401Z,98412.81
2023-03-06T22:40:39.803Z,98425.81
2023-03-06T22:45:44.726Z,98418.88
2023-03-06T22:50:48.464Z,98417.06
2023-03-06T22:55:51.941Z,98425.69
2023-03-06T23:00:57.901Z,98423.13
2023-03-06T23:06:01.199Z,98417.09
2023-03-06T23:11:08.230Z,98421.44
2023-03-06T23:16:13.326Z,98417.16
2023-03-06T23:21:18.426Z,98392.97
2023-03-06T23:26:23.925Z,98411.88
2023-03-06T23:31:30.244Z,98415.34
2023-03-06T23:36:33.577Z,98417.06
2023-03-06T23:41:36.872Z,98407.59
2023-03-06T23:46:41.588Z,98411.94
2023-03-06T23:51:45.063Z,98415.44
2023-03-06T23:56:48.660Z,98406.78
